Tompkins, Illinois
Current Conditions -  °F | °C
As of 10:55 AM on Saturday 22 Nov 2014 (Local Time) from KGBG Reporting Station
Overcast Overcast  
Wind Chill: 51°   Ceiling: 1800
Heat Index: 51°   Visibility: 10mi
Dew Point: 44°   Wind: 17mph
Humidity: 78%   Direction: 190°S
Pressure: 29.95"   Gusts: 25mph
Location:  40.8511°N, 90.7293°W
Report Text: KGBG 221655Z AUTO 19015G22KT 10SM BKN018 OVC023 11/07 A2995 RMK AO2 T01060069
Loading
Personal Weather Stations






























Interactive Weather Map New forecast layout! Learn more

10-Day Weather Forecast

Advertisements
Track Severe Weather on mobile